sensor_id;sensor_type;location;lat;lon;timestamp;P1;durP1;ratioP1;P2;durP2;ratioP2
54372;SDS011;69157;53.094;10.016;2023-04-25T00:01:46;6.68;;;2.72;;
54372;SDS011;69157;53.094;10.016;2023-04-25T00:04:12;6.50;;;2.90;;
54372;SDS011;69157;53.094;10.016;2023-04-25T00:06:38;6.38;;;2.92;;
54372;SDS011;69157;53.094;10.016;2023-04-25T00:09:04;7.00;;;3.25;;
54372;SDS011;69157;53.094;10.016;2023-04-25T00:11:32;6.88;;;2.97;;
54372;SDS011;69157;53.094;10.016;2023-04-25T00:13:58;4.30;;;2.55;;
54372;SDS011;69157;53.094;10.016;2023-04-25T00:16:27;6.03;;;3.20;;
54372;SDS011;69157;53.094;10.016;2023-04-25T00:18:53;6.45;;;2.85;;
54372;SDS011;69157;53.094;10.016;2023-04-25T00:21:20;6.43;;;2.92;;
54372;SDS011;69157;53.094;10.016;2023-04-25T00:23:49;6.20;;;3.00;;
54372;SDS011;69157;53.094;10.016;2023-04-25T00:26:15;7.10;;;3.08;;
54372;SDS011;69157;53.094;10.016;2023-04-25T00:28:41;9.63;;;2.83;;
54372;SDS011;69157;53.094;10.016;2023-04-25T00:31:07;7.07;;;3.47;;
54372;SDS011;69157;53.094;10.016;2023-04-25T00:33:33;7.70;;;3.10;;
54372;SDS011;69157;53.094;10.016;2023-04-25T00:35:59;5.93;;;2.80;;
54372;SDS011;69157;53.094;10.016;2023-04-25T00:38:25;7.20;;;2.90;;
54372;SDS011;69157;53.094;10.016;2023-04-25T00:40:51;5.75;;;2.90;;
54372;SDS011;69157;53.094;10.016;2023-04-25T00:43:18;5.88;;;3.30;;
54372;SDS011;69157;53.094;10.016;2023-04-25T00:45:44;5.50;;;2.80;;
54372;SDS011;69157;53.094;10.016;2023-04-25T00:48:13;7.97;;;3.22;;
54372;SDS011;69157;53.094;10.016;2023-04-25T00:50:39;6.07;;;3.03;;
54372;SDS011;69157;53.094;10.016;2023-04-25T00:53:06;6.70;;;3.33;;
54372;SDS011;69157;53.094;10.016;2023-04-25T00:55:32;8.63;;;3.38;;
54372;SDS011;69157;53.094;10.016;2023-04-25T00:58:01;6.55;;;3.30;;
54372;SDS011;69157;53.094;10.016;2023-04-25T01:00:27;4.82;;;2.83;;
54372;SDS011;69157;53.094;10.016;2023-04-25T01:02:53;6.28;;;3.20;;
54372;SDS011;69157;53.094;10.016;2023-04-25T01:05:19;6.22;;;2.63;;
54372;SDS011;69157;53.094;10.016;2023-04-25T01:07:45;3.83;;;2.80;;
54372;SDS011;69157;53.094;10.016;2023-04-25T01:10:12;5.28;;;2.20;;
54372;SDS011;69157;53.094;10.016;2023-04-25T01:12:38;3.72;;;2.45;;
54372;SDS011;69157;53.094;10.016;2023-04-25T01:15:04;3.97;;;2.28;;
54372;SDS011;69157;53.094;10.016;2023-04-25T01:17:31;6.43;;;1.98;;
54372;SDS011;69157;53.094;10.016;2023-04-25T01:19:58;10.70;;;2.40;;
54372;SDS011;69157;53.094;10.016;2023-04-25T01:22:24;7.80;;;2.20;;
54372;SDS011;69157;53.094;10.016;2023-04-25T01:24:51;6.47;;;2.00;;
54372;SDS011;69157;53.094;10.016;2023-04-25T01:27:17;6.90;;;2.03;;
54372;SDS011;69157;53.094;10.016;2023-04-25T01:29:43;2.95;;;1.83;;
54372;SDS011;69157;53.094;10.016;2023-04-25T01:32:09;8.95;;;2.15;;
54372;SDS011;69157;53.094;10.016;2023-04-25T01:34:36;8.50;;;2.45;;
54372;SDS011;69157;53.094;10.016;2023-04-25T01:37:02;6.70;;;1.83;;
54372;SDS011;69157;53.094;10.016;2023-04-25T01:39:28;9.80;;;1.95;;
54372;SDS011;69157;53.094;10.016;2023-04-25T01:41:54;3.85;;;1.95;;
54372;SDS011;69157;53.094;10.016;2023-04-25T01:44:20;7.18;;;1.90;;
54372;SDS011;69157;53.094;10.016;2023-04-25T01:46:46;7.28;;;1.67;;
54372;SDS011;69157;53.094;10.016;2023-04-25T01:49:12;11.68;;;2.15;;
54372;SDS011;69157;53.094;10.016;2023-04-25T01:51:38;8.93;;;2.17;;
54372;SDS011;69157;53.094;10.016;2023-04-25T01:54:04;8.68;;;2.35;;
54372;SDS011;69157;53.094;10.016;2023-04-25T01:56:31;6.57;;;1.90;;
54372;SDS011;69157;53.094;10.016;2023-04-25T01:58:58;8.82;;;1.92;;
54372;SDS011;69157;53.094;10.016;2023-04-25T02:01:24;7.82;;;2.03;;
54372;SDS011;69157;53.094;10.016;2023-04-25T02:03:50;7.43;;;2.15;;
54372;SDS011;69157;53.094;10.016;2023-04-25T02:06:16;9.90;;;1.70;;
54372;SDS011;69157;53.094;10.016;2023-04-25T02:08:42;9.23;;;1.80;;
54372;SDS011;69157;53.094;10.016;2023-04-25T02:11:08;7.43;;;1.58;;
54372;SDS011;69157;53.094;10.016;2023-04-25T02:13:34;8.68;;;1.98;;
54372;SDS011;69157;53.094;10.016;2023-04-25T02:16:00;8.13;;;2.13;;
54372;SDS011;69157;53.094;10.016;2023-04-25T02:18:26;4.80;;;2.05;;
54372;SDS011;69157;53.094;10.016;2023-04-25T02:20:53;4.70;;;1.85;;
54372;SDS011;69157;53.094;10.016;2023-04-25T02:23:19;11.52;;;1.90;;
54372;SDS011;69157;53.094;10.016;2023-04-25T02:25:45;5.72;;;2.13;;
54372;SDS011;69157;53.094;10.016;2023-04-25T02:28:11;10.70;;;2.00;;
54372;SDS011;69157;53.094;10.016;2023-04-25T02:30:37;6.75;;;1.90;;
54372;SDS011;69157;53.094;10.016;2023-04-25T02:33:03;5.78;;;1.55;;
54372;SDS011;69157;53.094;10.016;2023-04-25T02:35:29;7.78;;;1.55;;
54372;SDS011;69157;53.094;10.016;2023-04-25T02:37:55;9.10;;;1.83;;
54372;SDS011;69157;53.094;10.016;2023-04-25T02:40:21;6.90;;;1.70;;
54372;SDS011;69157;53.094;10.016;2023-04-25T02:42:47;8.45;;;1.73;;
54372;SDS011;69157;53.094;10.016;2023-04-25T02:45:13;9.15;;;2.10;;
54372;SDS011;69157;53.094;10.016;2023-04-25T02:47:39;4.63;;;1.70;;
54372;SDS011;69157;53.094;10.016;2023-04-25T02:50:06;6.78;;;2.17;;
54372;SDS011;69157;53.094;10.016;2023-04-25T02:52:32;8.70;;;1.92;;
54372;SDS011;69157;53.094;10.016;2023-04-25T02:54:58;11.55;;;1.83;;
54372;SDS011;69157;53.094;10.016;2023-04-25T02:57:24;8.88;;;1.80;;
54372;SDS011;69157;53.094;10.016;2023-04-25T02:59:50;10.50;;;1.70;;
54372;SDS011;69157;53.094;10.016;2023-04-25T03:02:16;11.77;;;1.90;;
54372;SDS011;69157;53.094;10.016;2023-04-25T03:04:42;10.70;;;2.47;;
54372;SDS011;69157;53.094;10.016;2023-04-25T03:07:08;10.82;;;1.95;;
54372;SDS011;69157;53.094;10.016;2023-04-25T03:09:34;8.85;;;2.20;;
54372;SDS011;69157;53.094;10.016;2023-04-25T03:12:00;14.60;;;3.05;;
54372;SDS011;69157;53.094;10.016;2023-04-25T03:14:26;5.38;;;2.00;;
54372;SDS011;69157;53.094;10.016;2023-04-25T03:16:52;9.90;;;1.98;;
54372;SDS011;69157;53.094;10.016;2023-04-25T03:19:18;10.25;;;1.90;;
54372;SDS011;69157;53.094;10.016;2023-04-25T03:21:45;11.43;;;1.83;;
54372;SDS011;69157;53.094;10.016;2023-04-25T03:24:11;5.10;;;2.20;;
54372;SDS011;69157;53.094;10.016;2023-04-25T03:26:37;7.28;;;1.80;;
54372;SDS011;69157;53.094;10.016;2023-04-25T03:29:03;6.53;;;2.25;;
54372;SDS011;69157;53.094;10.016;2023-04-25T03:31:29;10.77;;;2.17;;
54372;SDS011;69157;53.094;10.016;2023-04-25T03:33:55;7.97;;;2.08;;
54372;SDS011;69157;53.094;10.016;2023-04-25T03:36:21;7.63;;;1.95;;
54372;SDS011;69157;53.094;10.016;2023-04-25T03:38:47;7.15;;;2.03;;
54372;SDS011;69157;53.094;10.016;2023-04-25T03:41:13;8.55;;;1.92;;
54372;SDS011;69157;53.094;10.016;2023-04-25T03:43:39;13.10;;;1.60;;
54372;SDS011;69157;53.094;10.016;2023-04-25T03:46:05;10.45;;;1.52;;
54372;SDS011;69157;53.094;10.016;2023-04-25T03:48:31;5.10;;;1.58;;
54372;SDS011;69157;53.094;10.016;2023-04-25T03:50:57;9.90;;;1.65;;
54372;SDS011;69157;53.094;10.016;2023-04-25T03:53:24;4.20;;;1.58;;
54372;SDS011;69157;53.094;10.016;2023-04-25T03:55:50;15.27;;;2.38;;
54372;SDS011;69157;53.094;10.016;2023-04-25T03:58:16;9.25;;;1.77;;
54372;SDS011;69157;53.094;10.016;2023-04-25T04:00:42;8.70;;;1.80;;
54372;SDS011;69157;53.094;10.016;2023-04-25T04:03:08;4.47;;;1.60;;
54372;SDS011;69157;53.094;10.016;2023-04-25T04:05:35;5.75;;;1.85;;
54372;SDS011;69157;53.094;10.016;2023-04-25T04:08:02;8.98;;;1.88;;
54372;SDS011;69157;53.094;10.016;2023-04-25T04:10:28;6.18;;;2.15;;
54372;SDS011;69157;53.094;10.016;2023-04-25T04:12:54;3.92;;;1.65;;
54372;SDS011;69157;53.094;10.016;2023-04-25T04:15:20;6.18;;;2.13;;
54372;SDS011;69157;53.094;10.016;2023-04-25T04:17:47;13.43;;;2.08;;
54372;SDS011;69157;53.094;10.016;2023-04-25T04:20:13;6.60;;;1.95;;
54372;SDS011;69157;53.094;10.016;2023-04-25T04:22:39;13.52;;;2.13;;
54372;SDS011;69157;53.094;10.016;2023-04-25T04:25:05;10.23;;;1.63;;
54372;SDS011;69157;53.094;10.016;2023-04-25T04:27:32;7.10;;;1.67;;
54372;SDS011;69157;53.094;10.016;2023-04-25T04:29:59;5.40;;;1.63;;
54372;SDS011;69157;53.094;10.016;2023-04-25T04:32:25;9.10;;;1.85;;
54372;SDS011;69157;53.094;10.016;2023-04-25T04:34:52;8.40;;;1.92;;
54372;SDS011;69157;53.094;10.016;2023-04-25T04:37:19;3.72;;;1.30;;
54372;SDS011;69157;53.094;10.016;2023-04-25T04:39:46;7.35;;;1.60;;
54372;SDS011;69157;53.094;10.016;2023-04-25T04:42:12;9.45;;;2.10;;
54372;SDS011;69157;53.094;10.016;2023-04-25T04:44:38;9.88;;;1.55;;
54372;SDS011;69157;53.094;10.016;2023-04-25T04:47:04;6.13;;;1.60;;
54372;SDS011;69157;53.094;10.016;2023-04-25T04:49:30;5.70;;;1.55;;
54372;SDS011;69157;53.094;10.016;2023-04-25T04:51:56;6.13;;;1.67;;
54372;SDS011;69157;53.094;10.016;2023-04-25T04:54:24;5.78;;;1.77;;
54372;SDS011;69157;53.094;10.016;2023-04-25T04:56:50;6.70;;;1.63;;
54372;SDS011;69157;53.094;10.016;2023-04-25T04:59:17;8.73;;;1.73;;
54372;SDS011;69157;53.094;10.016;2023-04-25T05:01:43;8.55;;;2.05;;
54372;SDS011;69157;53.094;10.016;2023-04-25T05:04:09;6.95;;;1.55;;
54372;SDS011;69157;53.094;10.016;2023-04-25T05:06:35;5.57;;;1.77;;
54372;SDS011;69157;53.094;10.016;2023-04-25T05:09:01;9.13;;;1.80;;
54372;SDS011;69157;53.094;10.016;2023-04-25T05:11:27;4.70;;;1.20;;
54372;SDS011;69157;53.094;10.016;2023-04-25T05:13:54;7.60;;;2.00;;
54372;SDS011;69157;53.094;10.016;2023-04-25T05:16:20;3.40;;;1.42;;
54372;SDS011;69157;53.094;10.016;2023-04-25T05:18:47;5.75;;;1.42;;
54372;SDS011;69157;53.094;10.016;2023-04-25T05:21:14;5.70;;;1.38;;
54372;SDS011;69157;53.094;10.016;2023-04-25T05:23:40;8.30;;;1.80;;
54372;SDS011;69157;53.094;10.016;2023-04-25T05:26:06;8.63;;;1.58;;
54372;SDS011;69157;53.094;10.016;2023-04-25T05:28:38;6.97;;;1.63;;
54372;SDS011;69157;53.094;10.016;2023-04-25T05:31:04;5.63;;;1.30;;
54372;SDS011;69157;53.094;10.016;2023-04-25T05:33:30;6.03;;;1.13;;
54372;SDS011;69157;53.094;10.016;2023-04-25T05:35:56;3.75;;;1.15;;
54372;SDS011;69157;53.094;10.016;2023-04-25T05:38:22;5.20;;;1.60;;
54372;SDS011;69157;53.094;10.016;2023-04-25T05:40:48;4.80;;;1.40;;
54372;SDS011;69157;53.094;10.016;2023-04-25T05:43:14;6.68;;;1.42;;
54372;SDS011;69157;53.094;10.016;2023-04-25T05:45:40;3.13;;;1.25;;
54372;SDS011;69157;53.094;10.016;2023-04-25T05:48:06;3.33;;;1.00;;
54372;SDS011;69157;53.094;10.016;2023-04-25T05:50:32;5.18;;;1.55;;
54372;SDS011;69157;53.094;10.016;2023-04-25T05:52:58;5.35;;;1.15;;
54372;SDS011;69157;53.094;10.016;2023-04-25T05:55:24;3.15;;;1.45;;
54372;SDS011;69157;53.094;10.016;2023-04-25T05:57:50;7.15;;;1.25;;
54372;SDS011;69157;53.094;10.016;2023-04-25T06:00:16;3.92;;;1.33;;
54372;SDS011;69157;53.094;10.016;2023-04-25T06:02:43;9.35;;;1.85;;
54372;SDS011;69157;53.094;10.016;2023-04-25T06:05:10;6.57;;;1.50;;
54372;SDS011;69157;53.094;10.016;2023-04-25T06:07:36;5.68;;;1.30;;
54372;SDS011;69157;53.094;10.016;2023-04-25T06:10:02;6.53;;;1.30;;
54372;SDS011;69157;53.094;10.016;2023-04-25T06:12:31;4.93;;;1.10;;
54372;SDS011;69157;53.094;10.016;2023-04-25T06:14:57;6.22;;;1.52;;
54372;SDS011;69157;53.094;10.016;2023-04-25T06:17:23;7.28;;;1.70;;
54372;SDS011;69157;53.094;10.016;2023-04-25T06:19:49;9.63;;;1.40;;
54372;SDS011;69157;53.094;10.016;2023-04-25T06:22:15;7.55;;;1.48;;
54372;SDS011;69157;53.094;10.016;2023-04-25T06:24:41;5.35;;;1.25;;
54372;SDS011;69157;53.094;10.016;2023-04-25T06:27:07;3.80;;;1.17;;
54372;SDS011;69157;53.094;10.016;2023-04-25T06:29:33;7.00;;;1.50;;
54372;SDS011;69157;53.094;10.016;2023-04-25T06:31:59;3.00;;;1.30;;
54372;SDS011;69157;53.094;10.016;2023-04-25T06:34:25;1.75;;;1.08;;
54372;SDS011;69157;53.094;10.016;2023-04-25T06:36:51;5.45;;;1.42;;
54372;SDS011;69157;53.094;10.016;2023-04-25T06:39:17;2.85;;;1.40;;
54372;SDS011;69157;53.094;10.016;2023-04-25T06:41:45;4.32;;;1.33;;
54372;SDS011;69157;53.094;10.016;2023-04-25T06:44:11;3.42;;;1.48;;
54372;SDS011;69157;53.094;10.016;2023-04-25T06:46:37;6.50;;;1.42;;
54372;SDS011;69157;53.094;10.016;2023-04-25T06:49:04;2.28;;;1.05;;
54372;SDS011;69157;53.094;10.016;2023-04-25T06:51:30;4.53;;;1.40;;
54372;SDS011;69157;53.094;10.016;2023-04-25T06:53:56;6.20;;;1.35;;
54372;SDS011;69157;53.094;10.016;2023-04-25T06:56:22;3.25;;;1.25;;
54372;SDS011;69157;53.094;10.016;2023-04-25T06:58:48;3.50;;;1.55;;
54372;SDS011;69157;53.094;10.016;2023-04-25T07:01:14;1.83;;;1.23;;
54372;SDS011;69157;53.094;10.016;2023-04-25T07:03:40;4.93;;;1.45;;
54372;SDS011;69157;53.094;10.016;2023-04-25T07:06:07;7.53;;;1.63;;
54372;SDS011;69157;53.094;10.016;2023-04-25T07:08:33;10.13;;;1.17;;
54372;SDS011;69157;53.094;10.016;2023-04-25T07:10:59;5.00;;;1.50;;
54372;SDS011;69157;53.094;10.016;2023-04-25T07:13:25;8.73;;;1.23;;
54372;SDS011;69157;53.094;10.016;2023-04-25T07:15:51;1.90;;;1.15;;
54372;SDS011;69157;53.094;10.016;2023-04-25T07:18:17;6.32;;;1.73;;
54372;SDS011;69157;53.094;10.016;2023-04-25T07:20:43;5.90;;;1.20;;
54372;SDS011;69157;53.094;10.016;2023-04-25T07:23:09;1.92;;;1.13;;
54372;SDS011;69157;53.094;10.016;2023-04-25T07:25:35;10.45;;;1.75;;
54372;SDS011;69157;53.094;10.016;2023-04-25T07:28:01;2.10;;;1.02;;
54372;SDS011;69157;53.094;10.016;2023-04-25T07:30:27;4.93;;;1.30;;
54372;SDS011;69157;53.094;10.016;2023-04-25T07:32:53;6.40;;;1.45;;
54372;SDS011;69157;53.094;10.016;2023-04-25T07:35:20;4.95;;;1.30;;
54372;SDS011;69157;53.094;10.016;2023-04-25T07:37:46;3.40;;;1.30;;
54372;SDS011;69157;53.094;10.016;2023-04-25T07:40:12;6.78;;;1.77;;
54372;SDS011;69157;53.094;10.016;2023-04-25T07:42:41;5.53;;;1.35;;
54372;SDS011;69157;53.094;10.016;2023-04-25T07:45:07;2.30;;;1.00;;
54372;SDS011;69157;53.094;10.016;2023-04-25T07:47:34;4.78;;;1.52;;
54372;SDS011;69157;53.094;10.016;2023-04-25T07:50:00;8.27;;;1.52;;
54372;SDS011;69157;53.094;10.016;2023-04-25T07:52:26;4.20;;;1.38;;
54372;SDS011;69157;53.094;10.016;2023-04-25T07:54:52;3.42;;;1.20;;
54372;SDS011;69157;53.094;10.016;2023-04-25T07:57:18;7.43;;;1.27;;
54372;SDS011;69157;53.094;10.016;2023-04-25T07:59:45;6.93;;;1.45;;
54372;SDS011;69157;53.094;10.016;2023-04-25T08:02:11;3.85;;;1.38;;
54372;SDS011;69157;53.094;10.016;2023-04-25T08:04:37;4.75;;;1.15;;
54372;SDS011;69157;53.094;10.016;2023-04-25T08:07:03;3.70;;;1.25;;
54372;SDS011;69157;53.094;10.016;2023-04-25T08:09:29;6.55;;;1.15;;
54372;SDS011;69157;53.094;10.016;2023-04-25T08:11:59;2.83;;;1.08;;
54372;SDS011;69157;53.094;10.016;2023-04-25T08:14:26;3.88;;;1.10;;
54372;SDS011;69157;53.094;10.016;2023-04-25T08:16:52;4.90;;;1.20;;
54372;SDS011;69157;53.094;10.016;2023-04-25T08:19:18;10.45;;;1.42;;
54372;SDS011;69157;53.094;10.016;2023-04-25T08:21:44;2.42;;;1.08;;
54372;SDS011;69157;53.094;10.016;2023-04-25T08:24:10;1.67;;;1.00;;
54372;SDS011;69157;53.094;10.016;2023-04-25T08:26:36;1.40;;;0.63;;
54372;SDS011;69157;53.094;10.016;2023-04-25T08:29:03;3.90;;;0.75;;
54372;SDS011;69157;53.094;10.016;2023-04-25T08:31:30;0.68;;;0.57;;
54372;SDS011;69157;53.094;10.016;2023-04-25T08:33:56;1.63;;;0.77;;
54372;SDS011;69157;53.094;10.016;2023-04-25T08:36:22;3.05;;;0.90;;
54372;SDS011;69157;53.094;10.016;2023-04-25T08:38:49;1.50;;;0.75;;
54372;SDS011;69157;53.094;10.016;2023-04-25T08:41:15;4.10;;;0.85;;
54372;SDS011;69157;53.094;10.016;2023-04-25T08:43:42;1.50;;;0.80;;
54372;SDS011;69157;53.094;10.016;2023-04-25T08:46:09;2.40;;;0.95;;
54372;SDS011;69157;53.094;10.016;2023-04-25T08:48:35;3.78;;;1.00;;
54372;SDS011;69157;53.094;10.016;2023-04-25T08:51:02;3.15;;;0.98;;
54372;SDS011;69157;53.094;10.016;2023-04-25T08:53:29;5.20;;;1.77;;
54372;SDS011;69157;53.094;10.016;2023-04-25T08:55:56;4.40;;;0.98;;
54372;SDS011;69157;53.094;10.016;2023-04-25T08:58:23;4.00;;;1.02;;
54372;SDS011;69157;53.094;10.016;2023-04-25T09:00:49;5.07;;;1.10;;
54372;SDS011;69157;53.094;10.016;2023-04-25T09:03:16;5.70;;;0.98;;
54372;SDS011;69157;53.094;10.016;2023-04-25T09:05:42;4.32;;;0.90;;
54372;SDS011;69157;53.094;10.016;2023-04-25T09:08:08;1.73;;;0.77;;
54372;SDS011;69157;53.094;10.016;2023-04-25T09:10:35;2.58;;;0.82;;
54372;SDS011;69157;53.094;10.016;2023-04-25T09:13:05;5.10;;;1.13;;
54372;SDS011;69157;53.094;10.016;2023-04-25T09:15:32;1.67;;;0.68;;
54372;SDS011;69157;53.094;10.016;2023-04-25T09:17:58;1.50;;;0.70;;
54372;SDS011;69157;53.094;10.016;2023-04-25T09:20:25;2.00;;;0.70;;
54372;SDS011;69157;53.094;10.016;2023-04-25T09:23:24;1.88;;;0.80;;
54372;SDS011;69157;53.094;10.016;2023-04-25T09:25:44;2.35;;;0.77;;
54372;SDS011;69157;53.094;10.016;2023-04-25T09:28:12;1.33;;;0.80;;
54372;SDS011;69157;53.094;10.016;2023-04-25T09:30:38;2.83;;;0.85;;
54372;SDS011;69157;53.094;10.016;2023-04-25T09:33:05;3.50;;;0.82;;
54372;SDS011;69157;53.094;10.016;2023-04-25T09:35:34;2.20;;;0.68;;
54372;SDS011;69157;53.094;10.016;2023-04-25T09:38:01;2.92;;;0.90;;
54372;SDS011;69157;53.094;10.016;2023-04-25T09:40:28;1.38;;;0.60;;
54372;SDS011;69157;53.094;10.016;2023-04-25T09:42:55;2.72;;;0.68;;
54372;SDS011;69157;53.094;10.016;2023-04-25T09:45:22;3.53;;;0.95;;
54372;SDS011;69157;53.094;10.016;2023-04-25T09:47:49;1.25;;;0.60;;
54372;SDS011;69157;53.094;10.016;2023-04-25T09:50:16;2.15;;;0.63;;
54372;SDS011;69157;53.094;10.016;2023-04-25T09:52:44;2.72;;;0.82;;
54372;SDS011;69157;53.094;10.016;2023-04-25T09:55:10;3.67;;;0.80;;
54372;SDS011;69157;53.094;10.016;2023-04-25T09:57:36;1.05;;;0.63;;
54372;SDS011;69157;53.094;10.016;2023-04-25T10:00:06;2.50;;;0.80;;
54372;SDS011;69157;53.094;10.016;2023-04-25T10:02:37;0.70;;;0.65;;
54372;SDS011;69157;53.094;10.016;2023-04-25T10:05:05;2.70;;;0.93;;
54372;SDS011;69157;53.094;10.016;2023-04-25T10:07:31;3.55;;;0.75;;
54372;SDS011;69157;53.094;10.016;2023-04-25T10:09:58;3.55;;;0.90;;
54372;SDS011;69157;53.094;10.016;2023-04-25T10:12:26;4.28;;;0.80;;
54372;SDS011;69157;53.094;10.016;2023-04-25T10:14:53;4.43;;;0.60;;
54372;SDS011;69157;53.094;10.016;2023-04-25T10:17:20;3.88;;;0.73;;
54372;SDS011;69157;53.094;10.016;2023-04-25T10:19:47;2.92;;;0.70;;
54372;SDS011;69157;53.094;10.016;2023-04-25T10:24:39;1.65;;;0.60;;
54372;SDS011;69157;53.094;10.016;2023-04-25T10:27:05;2.90;;;0.75;;
54372;SDS011;69157;53.094;10.016;2023-04-25T10:29:31;2.75;;;0.80;;
54372;SDS011;69157;53.094;10.016;2023-04-25T10:31:57;4.03;;;1.23;;
54372;SDS011;69157;53.094;10.016;2023-04-25T10:34:25;2.20;;;0.50;;
54372;SDS011;69157;53.094;10.016;2023-04-25T10:37:03;0.68;;;0.60;;
54372;SDS011;69157;53.094;10.016;2023-04-25T10:39:29;1.10;;;0.73;;
54372;SDS011;69157;53.094;10.016;2023-04-25T10:41:56;1.17;;;0.75;;
54372;SDS011;69157;53.094;10.016;2023-04-25T10:44:24;1.75;;;0.65;;
54372;SDS011;69157;53.094;10.016;2023-04-25T10:46:52;1.73;;;0.90;;
54372;SDS011;69157;53.094;10.016;2023-04-25T10:49:31;1.25;;;0.70;;
54372;SDS011;69157;53.094;10.016;2023-04-25T10:52:24;1.92;;;0.68;;
54372;SDS011;69157;53.094;10.016;2023-04-25T10:54:52;1.67;;;0.50;;
54372;SDS011;69157;53.094;10.016;2023-04-25T10:57:31;1.95;;;0.55;;
54372;SDS011;69157;53.094;10.016;2023-04-25T10:59:58;1.35;;;0.70;;
54372;SDS011;69157;53.094;10.016;2023-04-25T11:02:26;1.67;;;0.60;;
54372;SDS011;69157;53.094;10.016;2023-04-25T11:04:54;3.15;;;1.05;;
54372;SDS011;69157;53.094;10.016;2023-04-25T11:07:26;1.75;;;0.60;;
54372;SDS011;69157;53.094;10.016;2023-04-25T11:09:55;3.10;;;1.02;;
54372;SDS011;69157;53.094;10.016;2023-04-25T11:12:21;2.70;;;0.95;;
54372;SDS011;69157;53.094;10.016;2023-04-25T11:14:50;2.85;;;0.90;;
54372;SDS011;69157;53.094;10.016;2023-04-25T11:17:16;1.15;;;0.77;;
54372;SDS011;69157;53.094;10.016;2023-04-25T11:19:43;3.58;;;0.75;;
54372;SDS011;69157;53.094;10.016;2023-04-25T11:22:09;2.83;;;0.98;;
54372;SDS011;69157;53.094;10.016;2023-04-25T11:24:36;2.60;;;0.68;;
54372;SDS011;69157;53.094;10.016;2023-04-25T11:27:04;1.63;;;0.80;;
54372;SDS011;69157;53.094;10.016;2023-04-25T11:29:31;2.45;;;0.80;;
54372;SDS011;69157;53.094;10.016;2023-04-25T11:31:58;4.03;;;0.80;;
54372;SDS011;69157;53.094;10.016;2023-04-25T11:34:25;2.83;;;1.02;;
54372;SDS011;69157;53.094;10.016;2023-04-25T11:36:52;3.15;;;1.02;;
54372;SDS011;69157;53.094;10.016;2023-04-25T11:39:21;4.55;;;0.73;;
54372;SDS011;69157;53.094;10.016;2023-04-25T11:41:47;3.08;;;1.13;;
54372;SDS011;69157;53.094;10.016;2023-04-25T11:44:16;3.28;;;0.85;;
54372;SDS011;69157;53.094;10.016;2023-04-25T11:46:43;1.85;;;0.60;;
54372;SDS011;69157;53.094;10.016;2023-04-25T11:49:09;2.78;;;0.60;;
54372;SDS011;69157;53.094;10.016;2023-04-25T11:51:42;2.67;;;0.77;;
54372;SDS011;69157;53.094;10.016;2023-04-25T11:54:09;1.83;;;0.70;;
54372;SDS011;69157;53.094;10.016;2023-04-25T11:56:35;1.42;;;0.77;;
54372;SDS011;69157;53.094;10.016;2023-04-25T11:59:05;1.75;;;0.60;;
54372;SDS011;69157;53.094;10.016;2023-04-25T12:01:31;3.33;;;0.73;;
54372;SDS011;69157;53.094;10.016;2023-04-25T12:03:58;1.73;;;0.68;;
54372;SDS011;69157;53.094;10.016;2023-04-25T12:06:27;2.35;;;0.73;;
54372;SDS011;69157;53.094;10.016;2023-04-25T12:09:03;2.20;;;0.70;;
54372;SDS011;69157;53.094;10.016;2023-04-25T12:11:30;1.52;;;0.80;;
54372;SDS011;69157;53.094;10.016;2023-04-25T12:14:01;3.13;;;0.63;;
54372;SDS011;69157;53.094;10.016;2023-04-25T12:18:55;4.03;;;1.27;;
54372;SDS011;69157;53.094;10.016;2023-04-25T12:21:22;3.63;;;0.90;;
54372;SDS011;69157;53.094;10.016;2023-04-25T12:23:48;2.35;;;0.75;;
54372;SDS011;69157;53.094;10.016;2023-04-25T12:26:14;3.78;;;0.68;;
54372;SDS011;69157;53.094;10.016;2023-04-25T12:28:45;4.13;;;0.95;;
54372;SDS011;69157;53.094;10.016;2023-04-25T12:31:12;4.35;;;0.80;;
54372;SDS011;69157;53.094;10.016;2023-04-25T12:33:40;1.92;;;1.00;;
54372;SDS011;69157;53.094;10.016;2023-04-25T12:36:07;2.88;;;0.68;;
54372;SDS011;69157;53.094;10.016;2023-04-25T12:38:36;2.58;;;0.88;;
54372;SDS011;69157;53.094;10.016;2023-04-25T12:41:02;2.50;;;0.90;;
54372;SDS011;69157;53.094;10.016;2023-04-25T12:43:28;2.92;;;0.80;;
54372;SDS011;69157;53.094;10.016;2023-04-25T12:45:54;3.90;;;0.90;;
54372;SDS011;69157;53.094;10.016;2023-04-25T12:48:21;3.72;;;0.85;;
54372;SDS011;69157;53.094;10.016;2023-04-25T12:50:47;2.22;;;0.77;;
54372;SDS011;69157;53.094;10.016;2023-04-25T12:53:17;1.02;;;0.57;;
54372;SDS011;69157;53.094;10.016;2023-04-25T12:55:44;5.50;;;1.00;;
54372;SDS011;69157;53.094;10.016;2023-04-25T12:58:16;2.78;;;0.60;;
54372;SDS011;69157;53.094;10.016;2023-04-25T13:00:42;3.15;;;1.10;;
54372;SDS011;69157;53.094;10.016;2023-04-25T13:03:09;1.77;;;0.82;;
54372;SDS011;69157;53.094;10.016;2023-04-25T13:05:36;1.88;;;0.73;;
54372;SDS011;69157;53.094;10.016;2023-04-25T13:08:02;1.25;;;0.43;;
54372;SDS011;69157;53.094;10.016;2023-04-25T13:10:29;4.35;;;0.70;;
54372;SDS011;69157;53.094;10.016;2023-04-25T13:12:55;2.42;;;0.60;;
54372;SDS011;69157;53.094;10.016;2023-04-25T13:15:21;0.75;;;0.35;;
54372;SDS011;69157;53.094;10.016;2023-04-25T13:17:48;0.65;;;0.52;;
54372;SDS011;69157;53.094;10.016;2023-04-25T13:20:14;1.77;;;0.60;;
54372;SDS011;69157;53.094;10.016;2023-04-25T13:22:42;1.38;;;0.75;;
54372;SDS011;69157;53.094;10.016;2023-04-25T13:25:10;1.95;;;0.50;;
54372;SDS011;69157;53.094;10.016;2023-04-25T13:27:36;0.90;;;0.40;;
54372;SDS011;69157;53.094;10.016;2023-04-25T13:30:04;2.90;;;0.70;;
54372;SDS011;69157;53.094;10.016;2023-04-25T13:32:33;1.60;;;0.70;;
54372;SDS011;69157;53.094;10.016;2023-04-25T13:35:00;1.98;;;0.77;;
54372;SDS011;69157;53.094;10.016;2023-04-25T13:37:27;2.10;;;0.80;;
54372;SDS011;69157;53.094;10.016;2023-04-25T13:39:54;3.17;;;0.68;;
54372;SDS011;69157;53.094;10.016;2023-04-25T13:42:21;4.57;;;0.75;;
54372;SDS011;69157;53.094;10.016;2023-04-25T13:44:47;2.15;;;0.70;;
54372;SDS011;69157;53.094;10.016;2023-04-25T13:47:13;4.93;;;0.90;;
54372;SDS011;69157;53.094;10.016;2023-04-25T13:49:39;3.00;;;0.82;;
54372;SDS011;69157;53.094;10.016;2023-04-25T13:52:05;2.88;;;0.50;;
54372;SDS011;69157;53.094;10.016;2023-04-25T13:54:32;2.85;;;1.20;;
54372;SDS011;69157;53.094;10.016;2023-04-25T13:56:58;1.33;;;0.70;;
54372;SDS011;69157;53.094;10.016;2023-04-25T13:59:25;1.92;;;0.32;;
54372;SDS011;69157;53.094;10.016;2023-04-25T14:01:51;2.33;;;0.90;;
54372;SDS011;69157;53.094;10.016;2023-04-25T14:04:17;2.22;;;0.77;;
54372;SDS011;69157;53.094;10.016;2023-04-25T14:06:43;1.13;;;0.60;;
54372;SDS011;69157;53.094;10.016;2023-04-25T14:09:09;2.22;;;0.63;;
54372;SDS011;69157;53.094;10.016;2023-04-25T14:11:37;5.53;;;0.70;;
54372;SDS011;69157;53.094;10.016;2023-04-25T14:14:03;1.33;;;0.40;;
54372;SDS011;69157;53.094;10.016;2023-04-25T14:16:30;0.45;;;0.38;;
54372;SDS011;69157;53.094;10.016;2023-04-25T14:18:57;4.72;;;0.95;;
54372;SDS011;69157;53.094;10.016;2023-04-25T14:21:23;1.95;;;0.43;;
54372;SDS011;69157;53.094;10.016;2023-04-25T14:23:52;1.88;;;0.50;;
54372;SDS011;69157;53.094;10.016;2023-04-25T14:26:19;2.03;;;0.80;;
54372;SDS011;69157;53.094;10.016;2023-04-25T14:28:45;2.55;;;0.50;;
54372;SDS011;69157;53.094;10.016;2023-04-25T14:37:07;0.60;;;0.45;;
54372;SDS011;69157;53.094;10.016;2023-04-25T14:39:33;4.05;;;0.80;;
54372;SDS011;69157;53.094;10.016;2023-04-25T14:41:59;0.68;;;0.68;;